createdAt,value
2022-08-18T00:01:14.886Z,3.78
2022-08-18T00:06:18.064Z,3.78
2022-08-18T00:11:20.017Z,3.50
2022-08-18T00:16:21.487Z,3.55
2022-08-18T00:21:22.970Z,4.05
2022-08-18T00:26:24.392Z,3.55
2022-08-18T00:31:26.055Z,3.92
2022-08-18T00:36:28.055Z,3.85
2022-08-18T00:41:30.209Z,3.50
2022-08-18T00:46:33.667Z,4.15
2022-08-18T00:51:41.364Z,4.45
2022-08-18T00:56:47.684Z,3.80
2022-08-18T01:01:50.315Z,4.30
2022-08-18T01:07:00.695Z,3.50
2022-08-18T01:12:02.116Z,3.50
2022-08-18T01:17:42.702Z,3.95
2022-08-18T01:22:49.824Z,4.00
2022-08-18T01:27:52.395Z,3.60
2022-08-18T01:32:54.191Z,4.10
2022-08-18T01:37:55.656Z,4.47
2022-08-18T01:42:57.147Z,3.75
2022-08-18T01:47:59.774Z,3.70
2022-08-18T01:53:01.773Z,3.75
2022-08-18T01:58:04.089Z,4.00
2022-08-18T02:03:08.500Z,4.20
2022-08-18T02:08:12.430Z,4.18
2022-08-18T02:13:14.070Z,4.13
2022-08-18T02:18:37.237Z,3.95
2022-08-18T02:23:44.943Z,3.78
2022-08-18T02:28:54.372Z,4.38
2022-08-18T02:33:57.152Z,4.22
2022-08-18T02:38:59.845Z,5.05
2022-08-18T02:44:01.831Z,4.50
2022-08-18T02:49:03.748Z,4.65
2022-08-18T02:54:09.360Z,4.40
2022-08-18T02:59:14.706Z,4.43
2022-08-18T03:04:22.915Z,4.35
2022-08-18T03:09:27.397Z,4.40
2022-08-18T03:14:29.195Z,5.10
2022-08-18T03:19:31.160Z,4.50
2022-08-18T03:24:33.169Z,4.10
2022-08-18T03:29:35.352Z,4.65
2022-08-18T03:34:36.775Z,4.55
2022-08-18T03:39:38.416Z,4.80
2022-08-18T03:44:39.871Z,4.80
2022-08-18T03:49:41.810Z,5.15
2022-08-18T03:54:43.344Z,5.00
2022-08-18T03:59:44.733Z,4.15
2022-08-18T04:04:46.180Z,5.15
2022-08-18T04:09:47.892Z,4.45
2022-08-18T04:14:51.845Z,4.38
2022-08-18T04:19:53.894Z,4.68
2022-08-18T04:24:55.835Z,4.57
2022-08-18T04:29:59.544Z,4.95
2022-08-18T04:35:02.723Z,4.75
2022-08-18T04:40:05.861Z,5.00
2022-08-18T04:45:08.280Z,4.80
2022-08-18T04:50:10.544Z,4.80
2022-08-18T04:55:12.168Z,5.45
2022-08-18T05:00:14.074Z,5.00
2022-08-18T05:05:15.649Z,5.50
2022-08-18T05:10:20.130Z,5.85
2022-08-18T05:15:21.616Z,5.15
2022-08-18T05:20:23.330Z,5.80
2022-08-18T05:25:24.774Z,4.70
2022-08-18T05:30:26.247Z,5.03
2022-08-18T05:35:33.542Z,5.70
2022-08-18T05:40:35.948Z,5.50
2022-08-18T05:45:39.680Z,5.63
2022-08-18T05:50:41.297Z,5.43
2022-08-18T05:56:19.689Z,5.20
2022-08-18T06:01:41.501Z,4.97
2022-08-18T06:06:47.671Z,5.10
2022-08-18T06:11:49.946Z,4.78
2022-08-18T06:16:51.325Z,4.40
2022-08-18T06:22:00.110Z,4.97
2022-08-18T06:27:10.966Z,4.57
2022-08-18T06:32:15.361Z,4.68
2022-08-18T06:37:20.020Z,3.67
2022-08-18T06:42:26.252Z,3.50
2022-08-18T06:47:37.701Z,3.40
2022-08-18T06:52:50.781Z,3.10
2022-08-18T06:57:57.789Z,3.10
2022-08-18T07:03:08.250Z,3.33
2022-08-18T07:08:28.632Z,3.03
2022-08-18T07:13:30.393Z,3.28
2022-08-18T07:18:31.861Z,2.90
2022-08-18T07:23:38.720Z,3.20
2022-08-18T07:28:40.209Z,3.30
2022-08-18T07:33:43.368Z,3.08
2022-08-18T07:38:54.004Z,3.53
2022-08-18T07:44:01.546Z,3.40
2022-08-18T07:49:05.513Z,3.03
2022-08-18T07:54:31.041Z,3.15
2022-08-18T07:59:35.557Z,2.72
2022-08-18T08:04:41.915Z,2.55
2022-08-18T08:09:52.148Z,2.78
2022-08-18T08:15:27.006Z,2.83
2022-08-18T08:20:49.009Z,2.42
2022-08-18T08:26:09.987Z,2.70
2022-08-18T08:31:37.325Z,2.70
2022-08-18T08:36:40.911Z,2.72
2022-08-18T08:41:51.564Z,3.10
2022-08-18T08:46:53.138Z,2.60
2022-08-18T08:52:03.382Z,2.90
2022-08-18T08:57:05.108Z,3.00
2022-08-18T09:02:46.568Z,2.70
2022-08-18T09:08:05.693Z,2.70
2022-08-18T09:13:30.209Z,2.47
2022-08-18T09:18:43.591Z,2.03
2022-08-18T09:23:46.614Z,1.90
2022-08-18T09:28:57.556Z,1.75
2022-08-18T09:34:14.070Z,1.88
2022-08-18T09:39:54.486Z,1.90
2022-08-18T09:44:58.025Z,2.00
2022-08-18T09:50:26.580Z,2.25
2022-08-18T09:55:32.078Z,2.10
2022-08-18T10:00:33.853Z,2.55
2022-08-18T10:05:35.706Z,2.00
2022-08-18T10:11:02.401Z,1.73
2022-08-18T10:16:11.044Z,1.90
2022-08-18T10:21:35.644Z,2.10
2022-08-18T10:26:38.260Z,2.20
2022-08-18T10:31:55.473Z,2.40
2022-08-18T10:37:11.868Z,2.92
2022-08-18T10:42:31.513Z,2.20
2022-08-18T10:47:34.187Z,2.40
2022-08-18T10:53:23.963Z,2.40
2022-08-18T10:58:39.938Z,2.28
2022-08-18T11:03:51.579Z,2.03
2022-08-18T11:14:36.330Z,2.58
2022-08-18T11:19:41.975Z,2.22
2022-08-18T11:24:44.677Z,2.53
2022-08-18T11:29:47.854Z,2.03
2022-08-18T11:34:56.631Z,2.40
2022-08-18T11:39:59.371Z,2.10
2022-08-18T11:45:06.279Z,2.45
2022-08-18T11:50:11.673Z,2.30
2022-08-18T11:55:24.494Z,2.15
2022-08-18T12:00:36.671Z,2.33
2022-08-18T12:05:54.190Z,2.08
2022-08-18T12:11:02.587Z,2.40
2022-08-18T12:16:33.066Z,2.38
2022-08-18T12:21:37.947Z,2.10
2022-08-18T12:26:47.373Z,1.90
2022-08-18T12:31:52.862Z,2.20
2022-08-18T12:36:56.747Z,1.90
2022-08-18T12:41:59.522Z,2.65
2022-08-18T12:47:02.171Z,2.35
2022-08-18T12:52:06.271Z,2.13
2022-08-18T12:57:10.037Z,2.25
2022-08-18T13:02:12.371Z,2.47
2022-08-18T13:07:15.862Z,2.38
2022-08-18T13:12:21.053Z,2.22
2022-08-18T13:17:30.021Z,2.08
2022-08-18T13:22:36.089Z,2.13
2022-08-18T13:27:38.280Z,2.30
2022-08-18T13:32:59.431Z,2.30
2022-08-18T13:38:06.719Z,2.58
2022-08-18T13:43:17.562Z,1.95
2022-08-18T13:48:19.135Z,2.20
2022-08-18T13:53:21.827Z,2.40
2022-08-18T13:58:23.963Z,2.22
2022-08-18T14:03:42.830Z,2.10
2022-08-18T14:08:46.986Z,2.20
2022-08-18T14:13:48.854Z,2.00
2022-08-18T14:19:09.719Z,2.10
2022-08-18T14:24:31.101Z,2.60
2022-08-18T14:29:46.100Z,2.05
2022-08-18T14:34:50.094Z,2.05
2022-08-18T14:39:53.823Z,2.30
2022-08-18T14:45:03.513Z,2.10
2022-08-18T14:50:19.810Z,1.83
2022-08-18T14:55:21.313Z,1.98
2022-08-18T15:00:24.413Z,2.22
2022-08-18T15:05:25.979Z,2.17
2022-08-18T15:10:28.010Z,2.40
2022-08-18T15:15:51.017Z,2.17
2022-08-18T15:21:19.671Z,1.80
2022-08-18T15:26:34.614Z,2.08
2022-08-18T15:31:53.717Z,2.05
2022-08-18T15:36:58.498Z,2.08
2022-08-18T15:42:12.028Z,2.10
2022-08-18T15:47:15.067Z,2.10
2022-08-18T15:52:24.604Z,1.95
2022-08-18T15:57:35.304Z,2.10
2022-08-18T16:02:48.352Z,2.20
2022-08-18T16:07:51.018Z,2.15
2022-08-18T16:12:52.756Z,2.00
2022-08-18T16:17:55.204Z,1.80
2022-08-18T16:22:59.908Z,1.85
2022-08-18T16:28:01.562Z,1.85
2022-08-18T16:33:04.464Z,2.00
2022-08-18T16:38:07.560Z,2.13
2022-08-18T16:43:10.429Z,2.03
2022-08-18T16:48:16.655Z,2.00
2022-08-18T16:53:18.569Z,1.95
2022-08-18T16:58:38.719Z,1.98
2022-08-18T17:04:00.364Z,1.83
2022-08-18T17:09:09.952Z,1.90
2022-08-18T17:14:11.946Z,1.70
2022-08-18T17:19:14.087Z,2.10
2022-08-18T17:24:15.873Z,2.05
2022-08-18T17:29:21.314Z,2.03
2022-08-18T17:34:27.440Z,2.03
2022-08-18T17:39:32.814Z,1.98
2022-08-18T17:44:34.738Z,2.00
2022-08-18T17:50:26.860Z,2.20
2022-08-18T17:55:35.693Z,2.13
2022-08-18T18:00:37.174Z,2.33
2022-08-18T18:05:43.580Z,1.90
2022-08-18T18:16:19.893Z,2.15
2022-08-18T18:21:23.056Z,2.10
2022-08-18T18:26:46.128Z,2.13
2022-08-18T18:38:02.139Z,2.05
2022-08-18T18:43:22.216Z,2.28
2022-08-18T18:48:38.654Z,2.45
2022-08-18T18:53:54.807Z,2.08
2022-08-18T18:59:14.253Z,2.22
2022-08-18T19:04:22.644Z,2.05
2022-08-18T19:09:39.495Z,1.90
2022-08-18T19:14:44.566Z,2.40
2022-08-18T19:20:07.291Z,2.30
2022-08-18T19:25:09.031Z,2.42
2022-08-18T19:30:12.671Z,2.22
2022-08-18T19:35:19.844Z,2.20
2022-08-18T19:40:24.097Z,1.90
2022-08-18T19:45:57.904Z,2.30
2022-08-18T19:51:05.577Z,2.17
2022-08-18T19:56:25.994Z,2.58
2022-08-18T20:01:30.701Z,2.10
2022-08-18T20:06:44.601Z,2.30
2022-08-18T20:12:05.024Z,2.47
2022-08-18T20:17:09.450Z,2.40
2022-08-18T20:22:21.999Z,2.30
2022-08-18T20:27:52.473Z,2.55
2022-08-18T20:33:03.279Z,2.75
2022-08-18T20:38:24.103Z,2.65
2022-08-18T20:43:43.617Z,2.20
2022-08-18T20:54:04.890Z,2.38
2022-08-18T20:59:20.402Z,2.50
2022-08-18T21:04:34.930Z,2.70
2022-08-18T21:09:36.326Z,2.35
2022-08-18T21:14:37.813Z,2.35
2022-08-18T21:19:40.818Z,2.08
2022-08-18T21:24:43.870Z,2.30
2022-08-18T21:29:49.512Z,2.20
2022-08-18T21:34:51.515Z,1.95
2022-08-18T21:39:55.393Z,2.60
2022-08-18T21:45:00.653Z,2.20
2022-08-18T21:50:08.297Z,2.08
2022-08-18T21:55:25.086Z,2.28
2022-08-18T22:00:29.327Z,2.28
2022-08-18T22:05:58.451Z,2.35
2022-08-18T22:11:59.356Z,2.13
2022-08-18T22:16:47.737Z,2.30
2022-08-18T22:22:23.366Z,1.98
2022-08-18T22:27:26.459Z,2.05
2022-08-18T22:32:27.927Z,2.40
2022-08-18T22:37:32.536Z,2.20
2022-08-18T22:42:34.260Z,2.50
2022-08-18T22:47:42.899Z,2.08
2022-08-18T22:52:47.578Z,1.98
2022-08-18T22:57:49.140Z,2.20
2022-08-18T23:02:50.650Z,2.80
2022-08-18T23:07:52.119Z,2.33
2022-08-18T23:12:53.847Z,2.63
2022-08-18T23:17:55.393Z,2.70
2022-08-18T23:22:57.036Z,2.67
2022-08-18T23:28:00.075Z,2.60
2022-08-18T23:33:01.576Z,2.80
2022-08-18T23:38:03.530Z,3.10
2022-08-18T23:43:06.863Z,2.28
2022-08-18T23:48:09.979Z,2.75
2022-08-18T23:53:12.066Z,2.45
2022-08-18T23:58:13.545Z,2.30
